Time;durP1;ratioP1;P1;durP2;ratioP2;P2;SDS_P1;SDS_P2;PMS_P1;PMS_P2;Temp;Humidity;BMP_temperature;BMP_pressure;BME280_temperature;BME280_humidity;BME280_pressure;Samples;Min_cycle;Max_cycle;Signal;HPM_P1;HPM_P2
2023/01/24 00:00:24;;;;;;;19.73;7.75;;;;;;;0.68;77.59;102460.44;1684321;84;21219;-66
2023/01/24 00:02:55;;;;;;;23.42;7.92;;;;;;;0.67;77.73;102455.52;1683982;85;21637;-65
2023/01/24 00:05:27;;;;;;;16.57;7.28;;;;;;;0.68;77.92;102465.36;1684245;84;21551;-66
2023/01/24 00:07:57;;;;;;;14.58;7.17;;;;;;;0.66;78.04;102463.22;1684381;84;21192;-65
2023/01/24 00:10:29;;;;;;;19.70;7.12;;;;;;;0.67;78.05;102454.17;1684239;84;21136;-65
2023/01/24 00:12:58;;;;;;;19.00;7.47;;;;;;;0.66;78.08;102459.17;1684008;85;21152;-66
2023/01/24 00:15:29;;;;;;;15.23;7.37;;;;;;;0.66;78.20;102457.83;1684021;85;21567;-64
2023/01/24 00:17:59;;;;;;;18.65;7.70;;;;;;;0.63;78.40;102456.61;1659047;85;21140;-67
2023/01/24 00:20:28;;;;;;;17.32;7.72;;;;;;;0.64;78.61;102459.70;1684322;84;21580;-68
2023/01/24 00:22:58;;;;;;;16.30;7.70;;;;;;;0.65;78.70;102452.03;1619005;88;21156;-66
2023/01/24 00:25:28;;;;;;;15.75;7.47;;;;;;;0.64;78.80;102444.39;1618849;87;21152;-65
2023/01/24 00:27:57;;;;;;;14.63;7.03;;;;;;;0.63;79.00;102449.87;1618666;88;21620;-65
2023/01/24 00:30:27;;;;;;;20.05;7.67;;;;;;;0.65;79.13;102445.30;1597585;88;22018;-66
2023/01/24 00:32:56;;;;;;;16.30;7.10;;;;;;;0.63;79.08;102452.09;1597974;88;21198;-66
2023/01/24 00:35:26;;;;;;;19.50;8.30;;;;;;;0.57;79.07;102450.20;1618947;87;21188;-66
2023/01/24 00:37:55;;;;;;;19.00;7.67;;;;;;;0.53;79.09;102456.72;1621480;87;21629;-65
2023/01/24 00:40:25;;;;;;;19.85;8.20;;;;;;;0.50;78.94;102453.70;1637141;85;21190;-65
2023/01/24 00:42:54;;;;;;;15.45;7.58;;;;;;;0.47;78.78;102450.30;1681305;85;21591;-65
2023/01/24 00:45:24;;;;;;;18.82;7.97;;;;;;;0.42;78.45;102445.63;1681343;85;21174;-66
2023/01/24 00:47:55;;;;;;;17.55;8.38;;;;;;;0.36;78.55;102452.70;1681381;85;21122;-67
2023/01/24 00:50:25;;;;;;;17.75;7.60;;;;;;;0.33;78.51;102455.56;1663625;85;21198;-66
2023/01/24 00:52:54;;;;;;;19.57;7.30;;;;;;;0.27;78.54;102458.11;1663855;85;21603;-64
2023/01/24 00:55:23;;;;;;;18.65;8.15;;;;;;;0.24;78.53;102454.23;1681415;85;21143;-65
2023/01/24 00:57:52;;;;;;;18.55;7.10;;;;;;;0.18;78.56;102450.50;1681293;85;21150;-66
2023/01/24 01:00:24;;;;;;;17.85;7.90;;;;;;;0.14;78.75;102452.97;1681341;85;21197;-65
2023/01/24 01:02:54;;;;;;;17.23;7.55;;;;;;;0.10;78.79;102445.99;1663642;85;21651;-67
2023/01/24 01:05:23;;;;;;;18.25;8.18;;;;;;;0.07;79.02;102442.98;1681218;85;21135;-64
2023/01/24 01:07:53;;;;;;;17.50;7.50;;;;;;;0.04;79.17;102444.48;1681419;85;21714;-66
2023/01/24 01:10:26;;;;;;;15.68;7.33;;;;;;;0.03;79.35;102451.30;1681227;85;21597;-65
2023/01/24 01:12:55;;;;;;;20.17;7.55;;;;;;;0.02;79.47;102457.17;1607028;89;21188;-67
2023/01/24 01:15:24;;;;;;;19.10;7.65;;;;;;;-0.01;79.45;102450.56;1609798;87;21410;-66
2023/01/24 01:17:54;;;;;;;19.32;7.33;;;;;;;-0.06;79.34;102454.84;1600375;90;21166;-66
2023/01/24 01:20:26;;;;;;;16.95;7.53;;;;;;;-0.09;79.32;102452.78;1609810;89;21201;-66
2023/01/24 01:22:56;;;;;;;17.85;7.05;;;;;;;-0.12;79.47;102450.24;1588942;89;22023;-65
2023/01/24 01:25:28;;;;;;;17.75;7.78;;;;;;;-0.14;79.44;102445.41;1600495;88;21166;-68
2023/01/24 01:27:58;;;;;;;21.50;8.00;;;;;;;-0.13;79.70;102443.98;1609723;89;21161;-65
2023/01/24 01:30:28;;;;;;;18.77;7.17;;;;;;;-0.12;79.84;102444.38;1615219;86;21145;-66
2023/01/24 01:32:57;;;;;;;20.80;7.50;;;;;;;-0.09;79.93;102451.43;1629457;88;21157;-67
2023/01/24 01:35:28;;;;;;;16.62;6.53;;;;;;;-0.10;79.95;102451.91;1657616;83;21130;-66
2023/01/24 01:37:57;;;;;;;18.57;7.42;;;;;;;-0.12;80.08;102449.77;1629351;87;21593;-65
2023/01/24 01:40:28;;;;;;;18.12;6.92;;;;;;;-0.15;80.28;102459.83;1637527;85;21150;-65
2023/01/24 01:42:59;;;;;;;17.25;7.45;;;;;;;-0.18;80.44;102451.43;1688561;85;21169;-65
2023/01/24 01:45:49;;;;;;;16.17;6.85;;;;;;;-0.19;80.64;102442.95;1688638;85;21098;-65
2023/01/24 01:48:30;;;;;;;18.85;7.22;;;;;;;-0.19;80.80;102450.16;1665641;85;21542;-66
2023/01/24 01:51:08;;;;;;;17.15;7.40;;;;;;;-0.23;80.94;102440.02;1686427;85;21598;-65
2023/01/24 01:53:42;;;;;;;18.85;7.60;;;;;;;-0.25;81.24;102448.65;1688649;85;21098;-66
2023/01/24 01:56:30;;;;;;;18.75;7.28;;;;;;;-0.28;81.46;102440.73;1688654;85;21102;-65
2023/01/24 01:59:04;;;;;;;21.10;6.92;;;;;;;-0.29;81.66;102440.80;1687044;85;21200;-65
2023/01/24 02:01:33;;;;;;;17.37;7.35;;;;;;;-0.32;81.68;102445.88;1688368;85;21126;-64
2023/01/24 02:04:11;;;;;;;19.85;7.33;;;;;;;-0.36;81.79;102439.77;1659981;85;21129;-67
2023/01/24 02:07:02;;;;;;;20.08;7.60;;;;;;;-0.36;81.97;102442.46;1659928;85;21141;-66
2023/01/24 02:09:39;;;;;;;18.12;7.33;;;;;;;-0.37;82.10;102456.01;1688228;85;21610;-66
2023/01/24 02:12:17;;;;;;;15.58;6.33;;;;;;;-0.38;82.22;102442.14;1658066;85;21142;-66
2023/01/24 02:17:22;;;;;;;16.32;6.83;;;;;;;-0.37;82.30;102447.92;1676815;85;21189;-66
2023/01/24 02:20:34;;;;;;;19.35;7.30;;;;;;;-0.45;82.23;102451.48;1688778;85;21608;-66
2023/01/24 02:23:24;;;;;;;15.25;6.90;;;;;;;-0.51;82.44;102451.31;1688423;85;21126;-66
2023/01/24 02:26:20;;;;;;;21.12;7.55;;;;;;;-0.51;82.71;102458.05;1684579;84;21660;-66
2023/01/24 02:28:57;;;;;;;19.55;7.47;;;;;;;-0.51;82.71;102451.78;1688608;85;21166;-66
2023/01/24 02:31:27;;;;;;;19.12;7.28;;;;;;;-0.53;82.70;102455.90;1659413;85;21173;-66
2023/01/24 02:33:58;;;;;;;18.55;8.23;;;;;;;-0.56;82.90;102448.45;1688379;85;21229;-66
2023/01/24 02:36:33;;;;;;;17.98;7.15;;;;;;;-0.58;83.03;102451.22;1688541;85;21241;-65
2023/01/24 02:39:17;;;;;;;17.62;7.35;;;;;;;-0.61;83.00;102455.88;1690327;84;21323;-66
2023/01/24 02:41:50;;;;;;;18.48;7.47;;;;;;;-0.63;83.12;102453.27;1691712;85;21649;-66
2023/01/24 02:44:44;;;;;;;16.60;7.37;;;;;;;-0.67;83.13;102450.29;1691788;85;21171;-66
2023/01/24 02:47:13;;;;;;;18.00;6.95;;;;;;;-0.68;83.28;102441.81;1691670;85;21140;-66
2023/01/24 02:49:43;;;;;;;18.23;7.33;;;;;;;-0.73;83.32;102446.55;1691806;84;21180;-65
2023/01/24 02:55:01;;;;;;;21.77;8.43;;;;;;;-0.81;83.62;102447.40;1691568;85;21135;-65
2023/01/24 03:00:21;;;;;;;16.70;7.35;;;;;;;-0.82;84.08;102457.30;1691853;85;21622;-66
2023/01/24 03:02:50;;;;;;;21.50;8.48;;;;;;;-0.82;84.16;102453.73;1691684;85;21147;-65
2023/01/24 03:05:19;;;;;;;21.07;8.70;;;;;;;-0.85;84.20;102457.91;1671850;85;21208;-65
2023/01/24 03:07:49;;;;;;;18.25;8.13;;;;;;;-0.85;84.29;102460.61;1691811;85;21144;-65
2023/01/24 03:10:19;;;;;;;18.95;8.58;;;;;;;-0.86;84.33;102452.13;1691970;85;21171;-67
2023/01/24 03:35:18;;;;;;;19.25;7.53;;;;;;;-0.89;84.76;102450.94;1691661;85;21258;-66
2023/01/24 03:40:38;;;;;;;24.00;8.80;;;;;;;-1.04;84.83;102444.00;1672132;85;21249;-66
2023/01/24 03:43:07;;;;;;;21.77;8.25;;;;;;;-1.11;84.86;102438.52;1691880;85;21148;-66
2023/01/24 03:45:39;;;;;;;19.73;8.13;;;;;;;-1.09;85.17;102448.73;1691642;85;21215;-66
2023/01/24 03:48:25;;;;;;;19.95;8.58;;;;;;;-1.04;85.36;102445.34;1691456;84;21575;-65
2023/01/24 03:53:33;;;;;;;20.23;8.33;;;;;;;-0.99;85.21;102447.81;1675405;85;21187;-66
2023/01/24 03:56:05;;;;;;;21.27;8.13;;;;;;;-1.02;85.18;102443.45;1691699;85;21279;-67
2023/01/24 03:58:36;;;;;;;20.02;8.55;;;;;;;-1.03;85.14;102444.88;1672384;84;21299;-67
2023/01/24 04:01:07;;;;;;;23.00;8.58;;;;;;;-1.04;85.13;102444.00;1691610;85;21271;-65
2023/01/24 04:03:47;;;;;;;25.52;8.38;;;;;;;-1.05;85.15;102440.91;1690886;84;21129;-68
2023/01/24 04:06:18;;;;;;;20.43;8.23;;;;;;;-1.05;85.24;102446.29;1691405;85;21175;-66
2023/01/24 04:08:50;;;;;;;19.37;8.18;;;;;;;-1.05;85.39;102439.56;1614408;89;21161;-66
2023/01/24 04:11:22;;;;;;;22.85;8.53;;;;;;;-1.04;85.35;102444.00;1614509;89;21268;-66
2023/01/24 04:13:54;;;;;;;18.98;8.20;;;;;;;-1.05;85.27;102442.25;1614635;89;21261;-67
2023/01/24 04:16:24;;;;;;;18.95;7.75;;;;;;;-1.08;85.33;102441.05;1614527;89;21176;-66
2023/01/24 04:19:12;;;;;;;18.00;7.00;;;;;;;-1.09;85.37;102443.34;1614562;87;21192;-65
2023/01/24 04:21:41;;;;;;;19.80;8.13;;;;;;;-1.10;85.42;102441.59;1614694;89;21186;-67
2023/01/24 04:24:11;;;;;;;22.15;8.00;;;;;;;-1.12;85.54;102440.80;1614481;89;21169;-65
2023/01/24 04:26:43;;;;;;;23.18;7.97;;;;;;;-1.08;85.66;102447.78;1645256;85;21140;-66
2023/01/24 04:29:14;;;;;;;20.85;8.58;;;;;;;-1.09;85.59;102441.13;1631027;88;21192;-67
2023/01/24 04:31:45;;;;;;;22.52;8.50;;;;;;;-1.16;85.59;102445.05;1631101;87;21776;-66
2023/01/24 04:34:26;;;;;;;23.40;7.55;;;;;;;-1.20;85.72;102442.98;1631051;86;21219;-67
2023/01/24 04:36:56;;;;;;;22.32;8.75;;;;;;;-1.19;85.87;102444.73;1631047;88;21188;-66
2023/01/24 04:39:27;;;;;;;21.82;7.65;;;;;;;-1.16;85.96;102445.92;1634429;86;21245;-66
2023/01/24 04:42:01;;;;;;;18.27;7.55;;;;;;;-1.14;85.98;102453.45;1637966;87;21221;-65
2023/01/24 04:44:33;;;;;;;16.32;7.50;;;;;;;-1.15;85.73;102453.52;1637773;87;22266;-66
2023/01/24 04:47:04;;;;;;;20.05;8.63;;;;;;;-1.18;85.80;102452.32;1661491;84;21130;-67
2023/01/24 04:49:34;;;;;;;19.80;7.97;;;;;;;-1.19;85.85;102456.83;1661660;85;21241;-65
2023/01/24 04:52:05;;;;;;;21.95;7.70;;;;;;;-1.21;85.76;102454.69;1701139;84;21607;-66
2023/01/24 04:54:40;;;;;;;20.90;8.30;;;;;;;-1.25;85.71;102454.42;1699738;84;21125;-67
2023/01/24 04:57:11;;;;;;;21.12;8.35;;;;;;;-1.29;85.74;102456.86;1688409;84;21102;-67
2023/01/24 04:59:41;;;;;;;20.68;8.15;;;;;;;-1.36;85.87;102461.61;1639212;85;21118;-67
2023/01/24 05:02:14;;;;;;;23.87;8.13;;;;;;;-1.39;86.06;102460.41;1701115;84;21177;-67
2023/01/24 05:04:45;;;;;;;26.87;8.98;;;;;;;-1.38;86.20;102464.84;1688409;85;21132;-65
2023/01/24 05:07:15;;;;;;;25.08;8.45;;;;;;;-1.41;86.35;102462.30;1701197;84;21137;-67
2023/01/24 05:09:46;;;;;;;24.92;9.13;;;;;;;-1.38;86.55;102466.66;1701107;84;21622;-67
2023/01/24 05:12:17;;;;;;;19.77;7.80;;;;;;;-1.34;86.72;102465.11;1688392;85;21129;-66
2023/01/24 05:14:47;;;;;;;20.88;8.28;;;;;;;-1.31;86.69;102464.09;1672541;84;21133;-67
2023/01/24 05:17:17;;;;;;;21.37;8.45;;;;;;;-1.30;86.68;102469.43;1688662;85;21166;-67
2023/01/24 05:19:48;;;;;;;20.30;8.38;;;;;;;-1.29;86.50;102468.48;1700813;84;21109;-68
2023/01/24 05:22:17;;;;;;;23.35;7.90;;;;;;;-1.32;86.46;102469.07;1671231;84;21204;-66
2023/01/24 05:24:47;;;;;;;18.32;7.95;;;;;;;-1.36;86.36;102467.47;1688697;85;21122;-66
2023/01/24 05:27:17;;;;;;;17.52;7.72;;;;;;;-1.36;86.48;102470.16;1671295;84;21177;-66
2023/01/24 05:29:48;;;;;;;19.42;7.80;;;;;;;-1.37;86.45;102471.09;1700291;84;21125;-66
2023/01/24 05:32:18;;;;;;;23.05;8.40;;;;;;;-1.39;86.49;102475.20;1688466;85;21153;-67
2023/01/24 05:34:48;;;;;;;22.65;8.58;;;;;;;-1.38;86.43;102476.07;1611974;89;21129;-67
2023/01/24 05:37:18;;;;;;;21.70;9.65;;;;;;;-1.43;86.27;102470.03;1602565;88;21185;-66
2023/01/24 05:39:48;;;;;;;19.32;8.58;;;;;;;-1.47;86.27;102472.45;1602150;88;21625;-68
2023/01/24 05:42:19;;;;;;;22.75;9.03;;;;;;;-1.50;86.32;102473.94;1603057;88;21177;-67
2023/01/24 05:44:52;;;;;;;20.15;8.35;;;;;;;-1.47;86.52;102471.11;1602665;89;21202;-67
2023/01/24 05:47:22;;;;;;;27.50;9.40;;;;;;;-1.46;86.50;102473.73;1602744;88;21237;-66
2023/01/24 05:49:52;;;;;;;25.05;8.20;;;;;;;-1.49;86.54;102473.00;1602517;89;21613;-67
2023/01/24 05:52:23;;;;;;;19.55;8.60;;;;;;;-1.52;86.67;102477.17;1625295;84;21119;-67
2023/01/24 05:54:55;;;;;;;35.90;9.20;;;;;;;-1.55;86.80;102478.19;1700990;84;21173;-69
2023/01/24 05:57:30;;;;;;;21.95;9.10;;;;;;;-1.55;86.94;102478.66;1662682;85;21178;-67
2023/01/24 06:00:17;;;;;;;21.68;9.20;;;;;;;-1.52;87.12;102474.48;1701095;84;21561;-66
2023/01/24 06:02:48;;;;;;;24.25;8.45;;;;;;;-1.49;86.98;102485.09;1699410;84;21557;-68
2023/01/24 06:05:17;;;;;;;26.17;9.93;;;;;;;-1.55;86.89;102482.22;1628602;87;21322;-66
2023/01/24 06:07:47;;;;;;;22.15;8.65;;;;;;;-1.55;87.06;102488.06;1577594;90;21640;-65
2023/01/24 06:10:17;;;;;;;24.32;9.40;;;;;;;-1.54;87.18;102492.50;1577907;91;21360;-65
2023/01/24 06:12:48;;;;;;;21.07;9.03;;;;;;;-1.56;87.11;102484.97;1576766;91;21190;-67
2023/01/24 06:15:18;;;;;;;22.90;9.30;;;;;;;-1.53;87.26;102486.17;1557823;91;21612;-67
2023/01/24 06:17:47;;;;;;;23.15;9.65;;;;;;;-1.50;87.34;102482.00;1577714;91;21189;-66
2023/01/24 06:20:19;;;;;;;28.85;10.20;;;;;;;-1.50;87.27;102491.42;1577706;91;21143;-67
2023/01/24 06:22:53;;;;;;;25.48;8.83;;;;;;;-1.50;87.31;102496.80;1590185;88;21182;-66
2023/01/24 06:25:25;;;;;;;20.95;8.98;;;;;;;-1.54;87.23;102491.16;1644290;84;21186;-66
2023/01/24 06:27:56;;;;;;;25.57;9.05;;;;;;;-1.60;87.40;102490.48;1701111;84;21557;-65
2023/01/24 06:30:26;;;;;;;22.30;9.68;;;;;;;-1.65;87.50;102491.16;1688580;84;21177;-66
2023/01/24 06:33:25;;;;;;;24.45;9.55;;;;;;;-1.65;87.66;102499.70;1700935;84;21164;-68
2023/01/24 06:36:15;;;;;;;25.30;10.35;;;;;;;-1.67;87.77;102499.77;1688441;85;21570;-65
2023/01/24 06:38:45;;;;;;;25.37;9.88;;;;;;;-1.67;87.97;102513.20;1700920;83;21133;-64
2023/01/24 06:41:17;;;;;;;21.82;8.63;;;;;;;-1.68;87.84;102500.70;1671343;84;21495;-64
2023/01/24 06:43:47;;;;;;;20.88;9.25;;;;;;;-1.69;88.02;102503.46;1661581;85;21150;-67
2023/01/24 06:46:17;;;;;;;24.52;8.60;;;;;;;-1.66;88.13;102510.91;1672238;84;21121;-65
2023/01/24 06:48:47;;;;;;;30.55;9.38;;;;;;;-1.58;88.23;102501.17;1688523;85;21573;-66
2023/01/24 06:51:18;;;;;;;26.57;9.70;;;;;;;-1.52;88.06;102497.33;1700847;84;21153;-66
2023/01/24 06:53:48;;;;;;;28.57;9.15;;;;;;;-1.48;87.98;102501.16;1671393;84;21177;-66
2023/01/24 06:56:18;;;;;;;26.65;10.10;;;;;;;-1.48;87.67;102507.01;1688397;85;21186;-66
2023/01/24 06:58:49;;;;;;;27.15;9.78;;;;;;;-1.51;87.76;102508.48;1688520;84;21572;-66
2023/01/24 07:01:19;;;;;;;21.07;9.73;;;;;;;-1.49;87.73;102504.79;1611756;89;21304;-64
2023/01/24 07:03:49;;;;;;;23.47;9.43;;;;;;;-1.47;87.60;102511.44;1602680;89;21175;-65
2023/01/24 07:06:21;;;;;;;22.20;9.30;;;;;;;-1.50;87.58;102506.20;1602620;88;21137;-65
2023/01/24 07:08:52;;;;;;;26.02;9.35;;;;;;;-1.49;87.60;102502.10;1602852;88;21310;-65
2023/01/24 07:11:23;;;;;;;30.17;10.03;;;;;;;-1.47;87.51;102506.06;1603100;88;21510;-64
2023/01/24 07:13:56;;;;;;;23.10;9.35;;;;;;;-1.47;87.43;102511.44;1603044;89;21166;-64
2023/01/24 07:16:26;;;;;;;22.10;9.13;;;;;;;-1.49;87.36;102507.48;1602630;89;21262;-68
2023/01/24 07:18:57;;;;;;;26.90;9.95;;;;;;;-1.50;87.17;102512.45;1627179;85;21134;-65
2023/01/24 07:21:28;;;;;;;21.12;8.35;;;;;;;-1.54;87.18;102503.25;1700914;84;21244;-65
2023/01/24 07:23:58;;;;;;;21.60;8.83;;;;;;;-1.54;87.22;102512.19;1688587;85;21130;-65
2023/01/24 07:26:29;;;;;;;29.07;9.23;;;;;;;-1.56;87.21;102510.04;1701230;84;21121;-68
2023/01/24 07:29:00;;;;;;;27.30;10.40;;;;;;;-1.54;87.30;102513.53;1661521;85;21161;-67
2023/01/24 07:31:29;;;;;;;39.50;11.05;;;;;;;-1.49;87.38;102514.67;1701094;84;21157;-69
2023/01/24 07:33:59;;;;;;;29.52;10.80;;;;;;;-1.47;87.36;102510.09;1701198;84;21101;-68
2023/01/24 07:36:29;;;;;;;22.45;9.35;;;;;;;-1.48;87.23;102513.73;1701208;84;21129;-66
2023/01/24 07:38:57;;;;;;;30.20;9.83;;;;;;;-1.47;87.27;102515.00;1688463;85;21620;-66
2023/01/24 07:41:27;;;;;;;25.00;9.80;;;;;;;-1.46;87.18;102519.91;1691827;84;21803;-67
2023/01/24 07:43:59;;;;;;;24.77;9.45;;;;;;;-1.48;87.13;102517.30;1691626;85;21136;-65
2023/01/24 07:46:29;;;;;;;20.25;9.35;;;;;;;-1.49;87.01;102524.08;1691686;85;21183;-68
2023/01/24 07:48:58;;;;;;;21.12;9.40;;;;;;;-1.54;87.08;102524.75;1691921;85;21148;-68
2023/01/24 07:51:27;;;;;;;36.05;11.25;;;;;;;-1.55;87.27;102521.66;1691687;83;21219;-67
2023/01/24 07:53:56;;;;;;;26.12;10.20;;;;;;;-1.51;87.37;102516.55;1691727;84;21155;-67
2023/01/24 07:56:26;;;;;;;28.55;11.00;;;;;;;-1.47;87.39;102518.16;1691821;84;21148;-67
2023/01/24 07:58:55;;;;;;;28.65;10.70;;;;;;;-1.46;87.31;102519.91;1691728;85;21187;-66
2023/01/24 08:01:24;;;;;;;23.35;9.95;;;;;;;-1.44;87.47;102517.55;1691705;84;21136;-67
2023/01/24 08:03:57;;;;;;;22.98;9.78;;;;;;;-1.42;87.38;102518.83;1691889;85;21116;-67
2023/01/24 08:06:27;;;;;;;26.87;10.43;;;;;;;-1.41;87.36;102517.89;1691729;83;21575;-66
2023/01/24 08:08:56;;;;;;;25.62;10.08;;;;;;;-1.39;87.31;102518.69;1672370;85;21214;-67
2023/01/24 08:11:25;;;;;;;24.87;10.30;;;;;;;-1.36;87.25;102522.59;1691747;85;21559;-68
2023/01/24 08:13:54;;;;;;;62.65;11.63;;;;;;;-1.36;87.13;102519.90;1691979;84;21575;-65
2023/01/24 08:16:25;;;;;;;26.33;10.85;;;;;;;-1.37;87.05;102522.19;1691692;85;21135;-67
2023/01/24 08:18:55;;;;;;;27.82;11.57;;;;;;;-1.37;87.02;102518.15;1691746;85;21123;-67
2023/01/24 08:21:25;;;;;;;25.25;10.13;;;;;;;-1.40;86.86;102512.91;1691592;85;21135;-66
2023/01/24 08:23:54;;;;;;;25.37;10.40;;;;;;;-1.39;87.08;102510.16;1691663;85;21159;-68
2023/01/24 08:26:24;;;;;;;27.48;11.00;;;;;;;-1.32;87.14;102510.75;1692041;85;21602;-67
2023/01/24 08:28:54;;;;;;;23.57;10.85;;;;;;;-1.27;87.06;102507.88;1672435;85;21190;-67
2023/01/24 08:31:24;;;;;;;31.68;10.38;;;;;;;-1.23;87.04;102505.45;1691587;84;21567;-68
2023/01/24 08:33:53;;;;;;;27.22;11.10;;;;;;;-1.21;86.84;102511.17;1672094;85;21286;-66
2023/01/24 08:36:23;;;;;;;24.45;10.10;;;;;;;-1.24;86.51;102507.75;1691780;85;21135;-68
2023/01/24 08:38:53;;;;;;;21.45;9.48;;;;;;;-1.29;86.54;102502.11;1672269;85;21167;-69
2023/01/24 08:41:25;;;;;;;31.30;10.08;;;;;;;-1.29;86.48;102509.30;1690470;83;21595;-67
2023/01/24 08:43:54;;;;;;;32.08;10.68;;;;;;;-1.28;86.51;102501.63;1671801;84;21651;-67
2023/01/24 08:46:23;;;;;;;27.45;10.53;;;;;;;-1.23;86.51;102512.18;1691363;85;21139;-67
2023/01/24 08:48:52;;;;;;;26.07;10.45;;;;;;;-1.21;86.34;102508.48;1691565;84;21601;-68
2023/01/24 08:51:21;;;;;;;28.98;11.10;;;;;;;-1.20;86.33;102511.56;1691635;84;21350;-67
2023/01/24 08:53:50;;;;;;;25.00;11.15;;;;;;;-1.21;86.23;102501.75;1691649;85;21131;-66
2023/01/24 08:56:21;;;;;;;26.95;10.95;;;;;;;-1.18;86.26;102500.73;1691612;85;21128;-67
2023/01/24 08:58:49;;;;;;;31.70;10.78;;;;;;;-1.18;86.17;102502.95;1691588;85;21159;-66
2023/01/24 09:01:20;;;;;;;26.30;10.78;;;;;;;-1.20;86.16;102498.12;1691640;84;21543;-67
2023/01/24 09:03:50;;;;;;;25.92;10.38;;;;;;;-1.22;86.15;102497.31;1691866;85;21171;-67
2023/01/24 09:06:19;;;;;;;29.42;11.43;;;;;;;-1.19;86.22;102491.80;1691586;85;21246;-67
2023/01/24 09:08:50;;;;;;;28.62;11.20;;;;;;;-1.21;86.17;102499.53;1671481;84;21172;-67
2023/01/24 09:11:21;;;;;;;25.32;10.85;;;;;;;-1.23;86.22;102498.26;1691774;85;21606;-66
2023/01/24 09:13:51;;;;;;;25.90;11.40;;;;;;;-1.28;86.15;102493.56;1691675;85;21141;-69
2023/01/24 09:16:21;;;;;;;28.70;13.13;;;;;;;-1.32;86.27;102487.42;1691585;85;21583;-67
2023/01/24 09:18:51;;;;;;;30.95;12.05;;;;;;;-1.30;86.39;102477.50;1691618;85;21571;-66
2023/01/24 09:21:20;;;;;;;23.77;10.05;;;;;;;-1.28;86.48;102474.74;1697991;83;21347;-70
2023/01/24 09:23:48;;;;;;;25.77;9.90;;;;;;;-1.26;86.63;102476.89;1716374;83;21126;-68
2023/01/24 09:26:18;;;;;;;21.75;9.25;;;;;;;-1.25;86.50;102482.67;1690354;83;21715;-66
2023/01/24 09:28:47;;;;;;;25.88;9.55;;;;;;;-1.25;86.65;102482.67;1691610;82;21588;-69
2023/01/24 09:31:17;;;;;;;27.42;10.72;;;;;;;-1.20;86.83;102474.38;1725567;83;21668;-68
2023/01/24 09:33:47;;;;;;;26.40;10.68;;;;;;;-1.20;86.69;102474.38;1725513;83;21546;-67
2023/01/24 09:36:20;;;;;;;26.02;10.30;;;;;;;-1.19;86.49;102475.66;1726634;82;21141;-68
2023/01/24 09:38:53;;;;;;;38.42;11.48;;;;;;;-1.19;86.62;102475.66;1694574;83;21143;-69
2023/01/24 09:41:37;;;;;;;23.42;10.13;;;;;;;-1.18;86.47;102477.41;1672601;85;21540;-66
2023/01/24 09:44:45;;;;;;;35.28;12.60;;;;;;;-1.19;86.46;102477.00;1678044;84;21131;-68
2023/01/24 09:47:33;;;;;;;24.43;11.28;;;;;;;-1.17;86.53;102476.93;1688078;84;21166;-69
2023/01/24 09:50:04;;;;;;;30.30;11.53;;;;;;;-1.14;86.53;102475.44;1683867;84;21159;-67
2023/01/24 09:52:39;;;;;;;25.17;10.78;;;;;;;-1.14;86.58;102463.34;1705448;83;21178;-68
2023/01/24 09:55:37;;;;;;;28.27;11.38;;;;;;;-1.12;86.58;102462.32;1681287;84;21135;-69
2023/01/24 09:58:31;;;;;;;22.40;10.55;;;;;;;-1.05;86.57;102469.16;1670440;85;21617;-68
2023/01/24 10:01:09;;;;;;;30.95;11.35;;;;;;;-1.05;86.41;102465.59;1664365;86;21195;-67
2023/01/24 10:03:38;;;;;;;25.50;10.28;;;;;;;-1.03;86.26;102468.61;1670212;85;21163;-67
2023/01/24 10:06:14;;;;;;;26.55;10.90;;;;;;;-1.00;86.18;102476.54;1670375;86;21215;-69
2023/01/24 10:08:54;;;;;;;21.27;10.43;;;;;;;-0.99;85.90;102480.97;1670378;86;21147;-67
2023/01/24 10:11:52;;;;;;;25.92;11.25;;;;;;;-0.99;85.90;102470.22;1670359;85;21243;-68
2023/01/24 10:14:52;;;;;;;24.35;10.28;;;;;;;-0.96;85.96;102467.37;1670237;86;21566;-68
2023/01/24 10:17:49;;;;;;;25.45;10.55;;;;;;;-0.93;85.86;102465.01;1618708;88;21170;-67
2023/01/24 10:20:33;;;;;;;24.72;10.58;;;;;;;-0.93;85.70;102462.80;1664357;86;21202;-68
2023/01/24 10:23:18;;;;;;;24.00;10.78;;;;;;;-0.91;85.64;102461.77;1670144;86;21214;-69
2023/01/24 10:26:18;;;;;;;29.25;11.60;;;;;;;-0.92;85.42;102454.65;1666621;86;21209;-68
2023/01/24 10:28:51;;;;;;;29.90;11.50;;;;;;;-0.95;85.36;102453.45;1651491;86;21598;-67
2023/01/24 10:31:29;;;;;;;26.85;11.33;;;;;;;-0.94;85.35;102448.94;1670264;86;21156;-68
2023/01/24 10:34:12;;;;;;;26.10;11.38;;;;;;;-0.95;85.42;102449.41;1578494;91;21711;-67
2023/01/24 10:37:11;;;;;;;33.67;11.85;;;;;;;-0.96;85.40;102451.23;1578847;89;21602;-68
2023/01/24 10:39:41;;;;;;;25.45;11.12;;;;;;;-0.98;85.37;102448.22;1578943;89;21187;-67
2023/01/24 10:42:28;;;;;;;27.17;11.93;;;;;;;-1.03;85.33;102439.49;1581047;89;21185;-69
2023/01/24 10:45:30;;;;;;;29.85;11.20;;;;;;;-1.07;85.53;102438.77;1581404;91;21609;-67
2023/01/24 10:48:15;;;;;;;24.87;10.60;;;;;;;-1.06;85.76;102430.22;1561594;90;21334;-68
2023/01/24 10:50:45;;;;;;;28.55;11.70;;;;;;;-1.07;85.90;102428.00;1581319;91;21637;-68
2023/01/24 10:53:25;;;;;;;30.25;11.53;;;;;;;-1.05;86.02;102430.14;1581332;91;21190;-69
2023/01/24 10:56:01;;;;;;;31.33;12.03;;;;;;;-1.03;86.10;102422.00;1581254;89;21126;-67
2023/01/24 10:58:55;;;;;;;25.30;11.15;;;;;;;-0.99;86.04;102431.20;1624366;85;21650;-68
2023/01/24 11:01:36;;;;;;;26.60;11.80;;;;;;;-0.99;85.95;102419.09;1673276;86;21202;-69
2023/01/24 11:04:24;;;;;;;29.07;12.07;;;;;;;-1.00;85.91;102427.23;1673287;85;21795;-68
2023/01/24 11:06:54;;;;;;;28.15;10.85;;;;;;;-1.00;86.05;102417.34;1656010;86;21209;-68
2023/01/24 11:09:30;;;;;;;23.32;9.88;;;;;;;-1.01;86.37;102415.60;1672999;85;21194;-67
2023/01/24 11:12:00;;;;;;;25.23;10.30;;;;;;;-0.99;86.30;102412.84;1673321;86;21171;-69
2023/01/24 11:14:34;;;;;;;25.88;11.00;;;;;;;-1.00;86.27;102409.75;1673045;85;21195;-67
2023/01/24 11:17:08;;;;;;;27.40;10.63;;;;;;;-0.99;86.26;102406.98;1651573;86;21120;-71
2023/01/24 11:19:39;;;;;;;28.47;11.00;;;;;;;-0.99;86.29;102404.30;1640283;86;21154;-67
2023/01/24 11:22:36;;;;;;;22.25;10.55;;;;;;;-0.96;86.26;102404.14;1673805;86;21220;-67
2023/01/24 11:25:06;;;;;;;23.22;10.15;;;;;;;-0.94;86.21;102403.20;1674119;85;21162;-68
2023/01/24 11:27:40;;;;;;;26.40;11.20;;;;;;;-0.93;86.19;102404.94;1651974;86;21653;-69
2023/01/24 11:30:17;;;;;;;24.50;11.15;;;;;;;-0.90;86.39;102400.75;1653097;86;21567;-75
2023/01/24 11:33:06;;;;;;;;;;;;;;;-0.83;86.94;102403.06;1654242;87;21180;-68
2023/01/24 11:35:39;;;;;;;29.63;11.65;;;;;;;-0.80;86.76;102391.28;1673075;85;20183;-69
2023/01/24 11:38:25;;;;;;;26.82;10.88;;;;;;;-0.81;86.54;102389.54;1685044;85;21142;-68
2023/01/24 11:41:11;;;;;;;24.63;10.90;;;;;;;-0.84;86.42;102386.52;1683911;84;21147;-69
2023/01/24 11:44:12;;;;;;;26.07;11.65;;;;;;;-0.85;86.49;102393.33;1679746;85;21254;-69
2023/01/24 11:46:51;;;;;;;27.42;11.40;;;;;;;-0.83;86.55;102384.23;1679612;85;21142;-68
2023/01/24 11:49:41;;;;;;;28.50;11.48;;;;;;;-0.81;86.51;102380.98;1679742;85;21590;-68
2023/01/24 11:52:44;;;;;;;25.90;10.90;;;;;;;-0.81;86.33;102386.37;1679870;85;21183;-69
2023/01/24 11:55:28;;;;;;;22.45;10.35;;;;;;;-0.88;86.25;102387.62;1679621;85;21143;-69
2023/01/24 11:58:18;;;;;;;22.58;10.68;;;;;;;-0.88;86.51;102380.89;1653143;85;21171;-67
2023/01/24 12:00:55;;;;;;;25.52;10.60;;;;;;;-0.77;86.55;102386.62;1679745;85;21174;-67
2023/01/24 12:03:51;;;;;;;24.70;10.05;;;;;;;-0.73;86.57;102385.98;1679479;85;21704;-67
2023/01/24 12:06:45;;;;;;;25.48;10.80;;;;;;;-0.68;86.28;102382.59;1679563;85;21150;-67
2023/01/24 12:09:25;;;;;;;24.95;10.80;;;;;;;-0.67;86.11;102384.34;1679271;85;21139;-67
2023/01/24 12:12:22;;;;;;;21.40;9.78;;;;;;;-0.66;86.02;102379.35;1679697;85;21660;-69
2023/01/24 12:15:19;;;;;;;21.07;9.78;;;;;;;-0.69;85.84;102380.85;1675543;85;21186;-67
2023/01/24 12:18:21;;;;;;;19.55;9.43;;;;;;;-0.70;85.58;102383.14;1679660;85;21147;-67
2023/01/24 12:21:10;;;;;;;20.45;9.75;;;;;;;-0.70;85.29;102380.45;1671812;85;21136;-69
2023/01/24 12:24:03;;;;;;;22.60;11.08;;;;;;;-0.70;85.16;102382.67;1653777;85;21123;-68